Terminal Aerodrome Forecast
Issued by NWS Burlington, VT

Home | Current Version | Previous Version | Text Only | Print | Product List | Glossary On
Versions: 1 2 3 4 5 6 7 8 9 10 11 12 13 14 15 16 17
000
FTUS41 KBTV 311120
TAFBTV
TAF
KBTV 311120Z 3112/0112 20006KT P6SM SCT070
     FM311400 25010G17KT P6SM FEW070
     FM010000 20005KT P6SM SCT060
     FM010800 18006KT P6SM VCSH BKN060=

USA.gov is the U.S. government's official web portal to all federal, state and local government web resources and services.